createdAt,value
2023-03-21T00:02:30.591Z,101186.53
2023-03-21T00:07:32.575Z,101197.97
2023-03-21T00:12:36.126Z,101191.78
2023-03-21T00:17:38.195Z,101186.50
2023-03-21T00:22:40.300Z,101182.94
2023-03-21T00:33:19.827Z,101175.88
2023-03-21T00:38:27.955Z,101171.47
2023-03-21T00:43:31.330Z,101176.75
2023-03-21T00:48:33.825Z,101172.34
2023-03-21T00:53:35.948Z,101169.66
2023-03-21T00:58:39.379Z,101177.59
2023-03-21T01:03:41.424Z,101166.13
2023-03-21T01:08:52.314Z,101165.19
2023-03-21T01:14:10.872Z,101175.69
2023-03-21T01:19:27.512Z,101163.31
2023-03-21T01:24:37.613Z,101165.91
2023-03-21T01:29:41.210Z,101172.03
2023-03-21T01:34:43.357Z,101168.47
2023-03-21T01:39:46.623Z,101161.41
2023-03-21T01:44:55.918Z,101163.09
2023-03-21T01:50:01.256Z,101163.00
2023-03-21T01:55:04.699Z,101168.22
2023-03-21T02:00:10.263Z,101164.69
2023-03-21T02:05:12.390Z,101156.75
2023-03-21T02:10:17.055Z,101155.81
2023-03-21T02:15:20.915Z,101156.69
2023-03-21T02:20:47.066Z,101150.59
2023-03-21T02:26:21.374Z,101146.16
2023-03-21T02:31:41.599Z,101130.31
2023-03-21T02:36:56.048Z,101148.75
2023-03-21T02:42:07.937Z,101145.22
2023-03-21T02:47:14.541Z,101144.31
2023-03-21T02:52:37.295Z,101148.69
2023-03-21T02:57:46.684Z,101140.75
2023-03-21T03:02:54.630Z,101145.16
2023-03-21T03:08:15.205Z,101146.97
2023-03-21T03:13:31.266Z,101151.34
2023-03-21T03:18:46.676Z,101146.94
2023-03-21T03:23:53.698Z,101143.41
2023-03-21T03:29:01.008Z,101144.31
2023-03-21T03:34:06.715Z,101146.94
2023-03-21T03:39:13.823Z,101142.50
2023-03-21T03:44:16.552Z,101152.22
2023-03-21T03:49:22.572Z,101143.41
2023-03-21T03:54:30.333Z,101148.69
2023-03-21T03:59:34.690Z,101141.63
2023-03-21T04:04:36.957Z,101143.38
2023-03-21T04:09:44.464Z,101125.72
2023-03-21T04:14:47.616Z,101134.59
2023-03-21T04:19:51.989Z,101138.09
2023-03-21T04:24:57.176Z,101145.16
2023-03-21T04:29:59.781Z,101141.63
2023-03-21T04:35:01.934Z,101139.88
2023-03-21T04:40:06.495Z,101144.25
2023-03-21T04:45:12.406Z,101132.81
2023-03-21T04:50:14.824Z,101130.16
2023-03-21T04:55:21.574Z,101139.78
2023-03-21T05:00:24.223Z,101131.03
2023-03-21T05:05:25.909Z,101135.34
2023-03-21T05:10:29.593Z,101129.19
2023-03-21T05:15:31.376Z,101144.16
2023-03-21T05:20:36.119Z,101137.13
2023-03-21T05:25:40.351Z,101129.22
2023-03-21T05:30:42.741Z,101127.44
2023-03-21T05:35:44.875Z,101125.69
2023-03-21T05:40:49.486Z,101134.50
2023-03-21T05:45:59.176Z,101134.50
2023-03-21T05:51:01.358Z,101138.94
2023-03-21T05:56:06.068Z,101138.97
2023-03-21T06:01:08.314Z,101134.66
2023-03-21T06:06:10.831Z,101143.47
2023-03-21T06:11:23.615Z,101143.47
2023-03-21T06:16:25.924Z,101148.78
2023-03-21T06:21:28.231Z,101153.19
2023-03-21T06:26:31.654Z,101154.13
2023-03-21T06:31:33.982Z,101154.13
2023-03-21T06:36:35.816Z,101155.94
2023-03-21T06:41:39.412Z,101148.84
2023-03-21T06:46:41.803Z,101155.09
2023-03-21T06:51:43.957Z,101148.97
2023-03-21T06:56:47.738Z,101156.94
2023-03-21T07:01:49.897Z,101155.22
2023-03-21T07:06:52.092Z,101156.22
2023-03-21T07:11:55.475Z,101149.22
2023-03-21T07:16:58.151Z,101156.34
2023-03-21T07:22:00.196Z,101157.28
2023-03-21T07:27:03.317Z,101158.22
2023-03-21T07:32:05.040Z,101163.53
2023-03-21T07:37:07.521Z,101156.47
2023-03-21T07:42:11.247Z,101147.59
2023-03-21T07:47:13.481Z,101163.53
2023-03-21T07:52:15.593Z,101163.50
2023-03-21T07:57:19.322Z,101162.69
2023-03-21T08:02:21.506Z,101158.38
2023-03-21T08:07:23.675Z,101150.47
2023-03-21T08:12:27.632Z,101153.13
2023-03-21T08:17:29.781Z,101150.50
2023-03-21T08:22:33.568Z,101153.13
2023-03-21T08:27:39.298Z,101162.84
2023-03-21T08:32:41.893Z,101155.81
2023-03-21T08:37:44.133Z,101156.69
2023-03-21T08:42:47.770Z,101154.03
2023-03-21T08:47:50.133Z,101159.34
2023-03-21T08:52:52.677Z,101154.94
2023-03-21T08:57:56.419Z,101159.34
2023-03-21T09:02:59.027Z,101155.81
2023-03-21T09:08:01.137Z,101157.53
2023-03-21T09:13:05.538Z,101155.78
2023-03-21T09:18:07.725Z,101160.16
2023-03-21T09:23:10.157Z,101154.84
2023-03-21T09:28:13.563Z,101154.88
2023-03-21T09:33:15.709Z,101161.88
2023-03-21T09:38:17.781Z,101162.66
2023-03-21T09:43:36.910Z,101152.97
2023-03-21T09:48:56.657Z,101145.03
2023-03-21T09:54:03.415Z,101151.22
2023-03-21T09:59:11.594Z,101155.59
2023-03-21T10:04:15.657Z,101152.81
2023-03-21T10:09:19.853Z,101135.84
2023-03-21T10:14:28.149Z,101125.44
2023-03-21T10:19:30.091Z,101126.53
2023-03-21T10:24:34.681Z,101128.47
2023-03-21T10:29:42.878Z,101115.13
2023-03-21T10:34:48.319Z,101111.44
2023-03-21T10:39:52.413Z,101113.06
2023-03-21T10:44:57.379Z,101109.47
2023-03-21T10:50:08.623Z,101108.59
2023-03-21T10:55:20.375Z,101112.16
2023-03-21T11:00:27.921Z,101108.69
2023-03-21T11:05:37.553Z,101092.78
2023-03-21T11:10:53.698Z,101098.78
2023-03-21T11:16:03.798Z,101087.41
2023-03-21T11:21:08.555Z,101083.88
2023-03-21T11:26:17.026Z,101071.00
2023-03-21T11:31:21.468Z,101076.25
2023-03-21T11:36:34.937Z,101063.31
2023-03-21T11:41:40.622Z,101060.41
2023-03-21T11:46:43.883Z,101053.28
2023-03-21T11:51:52.170Z,101056.56
2023-03-21T11:57:01.243Z,101051.69
2023-03-21T12:02:27.302Z,101055.16
2023-03-21T12:07:46.124Z,101048.72
2023-03-21T12:12:55.816Z,101036.44
2023-03-21T12:18:06.485Z,101023.38
2023-03-21T12:23:23.141Z,101025.16
2023-03-21T12:28:39.122Z,101015.63
2023-03-21T12:34:06.895Z,101010.19
2023-03-21T12:39:19.687Z,101009.13
2023-03-21T12:44:24.093Z,101007.66
2023-03-21T12:49:33.049Z,101003.09
2023-03-21T12:54:40.233Z,100998.44
2023-03-21T12:59:49.388Z,100990.84
2023-03-21T13:04:59.504Z,100980.22
2023-03-21T13:10:11.838Z,100980.41
2023-03-21T13:15:38.643Z,100972.38
2023-03-21T13:20:46.615Z,100970.59
2023-03-21T13:25:50.874Z,100961.06
2023-03-21T13:30:53.690Z,100954.69
2023-03-21T13:36:00.980Z,100955.91
2023-03-21T13:41:08.884Z,100954.94
2023-03-21T13:46:13.662Z,100942.56
2023-03-21T13:51:37.787Z,100944.34
2023-03-21T13:56:50.622Z,100933.84
2023-03-21T14:02:03.857Z,100936.16
2023-03-21T14:07:11.889Z,100929.00
2023-03-21T14:12:17.194Z,100935.63
2023-03-21T14:17:23.558Z,100927.78
2023-03-21T14:22:27.710Z,100924.53
2023-03-21T14:27:32.573Z,100928.19
2023-03-21T14:32:35.644Z,100909.84
2023-03-21T14:37:41.120Z,100913.63
2023-03-21T14:42:47.431Z,100901.16
2023-03-21T14:47:57.451Z,100891.44
2023-03-21T14:53:01.141Z,100886.81
2023-03-21T14:58:05.625Z,100886.69
2023-03-21T15:03:11.534Z,100878.72
2023-03-21T15:08:17.878Z,100877.78
2023-03-21T15:13:23.029Z,100875.34
2023-03-21T15:18:28.193Z,100867.41
2023-03-21T15:23:35.134Z,100860.25
2023-03-21T15:28:37.570Z,100860.50
2023-03-21T15:33:39.929Z,100862.31
2023-03-21T15:38:43.568Z,100850.97
2023-03-21T15:43:46.887Z,100842.94
2023-03-21T15:48:48.960Z,100845.44
2023-03-21T15:53:53.822Z,100835.41
2023-03-21T15:58:55.959Z,100821.09
2023-03-21T16:04:02.396Z,100822.84
2023-03-21T16:09:12.436Z,100819.59
2023-03-21T16:14:14.637Z,100806.22
2023-03-21T16:19:17.514Z,100817.06
2023-03-21T16:24:21.029Z,100826.19
2023-03-21T16:29:23.110Z,100824.69
2023-03-21T16:34:25.348Z,100833.56
2023-03-21T16:39:28.861Z,100823.91
2023-03-21T16:44:31.066Z,100823.06
2023-03-21T16:49:33.227Z,100826.56
2023-03-21T16:54:36.696Z,100819.53
2023-03-21T16:59:38.873Z,100813.44
2023-03-21T17:04:40.994Z,100810.88
2023-03-21T17:09:44.664Z,100812.00
2023-03-21T17:14:46.887Z,100800.59
2023-03-21T17:19:48.997Z,100805.09
2023-03-21T17:24:52.605Z,100804.25
2023-03-21T17:29:54.823Z,100795.47
2023-03-21T17:34:56.843Z,100792.03
2023-03-21T17:40:00.228Z,100783.38
2023-03-21T17:45:02.357Z,100788.78
2023-03-21T17:50:05.101Z,100786.13
2023-03-21T17:55:08.716Z,100788.00
2023-03-21T18:00:15.593Z,100788.00
2023-03-21T18:05:18.584Z,100783.59
2023-03-21T18:10:24.859Z,100790.69
2023-03-21T18:15:30.313Z,100785.41
2023-03-21T18:20:51.278Z,100794.28
2023-03-21T18:25:56.123Z,100793.38
2023-03-21T18:31:10.296Z,100788.09
2023-03-21T18:36:16.603Z,100801.34
2023-03-21T18:41:20.212Z,100801.44
2023-03-21T18:46:23.072Z,100805.94
2023-03-21T18:51:25.130Z,100808.59
2023-03-21T18:57:20.064Z,100800.69
2023-03-21T19:01:51.007Z,100809.53
2023-03-21T19:06:53.495Z,100800.72
2023-03-21T19:11:57.290Z,100795.44
2023-03-21T19:17:47.485Z,100793.69
2023-03-21T19:22:25.999Z,100787.31
2023-03-21T19:27:30.007Z,100789.84
2023-03-21T19:32:32.348Z,100794.28
2023-03-21T19:37:35.347Z,100796.84
2023-03-21T19:42:39.026Z,100796.06
2023-03-21T19:47:41.338Z,100787.34
2023-03-21T19:52:43.386Z,100798.06
2023-03-21T19:57:48.628Z,100788.53
2023-03-21T20:02:50.597Z,100793.88
2023-03-21T20:07:53.396Z,100793.03
2023-03-21T20:12:57.255Z,100794.84
2023-03-21T20:17:58.952Z,100794.06
2023-03-21T20:23:09.014Z,100795.84
2023-03-21T20:28:22.586Z,100803.81
2023-03-21T20:33:27.387Z,100799.34
2023-03-21T20:38:30.036Z,100798.66
2023-03-21T20:48:55.247Z,100782.78
2023-03-21T20:53:57.210Z,100771.25
2023-03-21T20:59:15.268Z,100775.78
2023-03-21T21:04:19.648Z,100769.63
2023-03-21T21:09:21.367Z,100775.72
2023-03-21T21:14:24.896Z,100774.00
2023-03-21T21:19:27.254Z,100778.44
2023-03-21T21:24:29.435Z,100770.50
2023-03-21T21:29:32.643Z,100767.75
2023-03-21T21:34:34.908Z,100766.03
2023-03-21T21:39:37.074Z,100759.88
2023-03-21T21:44:41.011Z,100770.56
2023-03-21T21:49:43.336Z,100765.28
2023-03-21T21:54:45.613Z,100758.19
2023-03-21T21:59:49.141Z,100756.50
2023-03-21T22:04:54.332Z,100754.81
2023-03-21T22:09:56.409Z,100769.09
2023-03-21T22:15:00.104Z,100766.47
2023-03-21T22:20:06.507Z,100760.25
2023-03-21T22:25:11.620Z,100751.50
2023-03-21T22:30:16.158Z,100751.53
2023-03-21T22:35:18.136Z,100743.66
2023-03-21T22:40:20.375Z,100741.88
2023-03-21T22:45:23.508Z,100748.03
2023-03-21T22:50:25.591Z,100748.03
2023-03-21T22:55:27.729Z,100751.63
2023-03-21T23:00:31.563Z,100739.28
2023-03-21T23:05:33.613Z,100729.53
2023-03-21T23:10:37.674Z,100739.31
2023-03-21T23:15:41.545Z,100747.28
2023-03-21T23:20:43.320Z,100746.41
2023-03-21T23:25:45.033Z,100729.59
2023-03-21T23:30:48.211Z,100725.19
2023-03-21T23:35:50.226Z,100721.69
2023-03-21T23:40:51.911Z,100714.78
2023-03-21T23:45:56.530Z,100718.41
2023-03-21T23:50:58.881Z,100719.34
2023-03-21T23:56:00.587Z,100711.47
